Time;durP1;ratioP1;P1;durP2;ratioP2;P2;SDS_P1;SDS_P2;PMS_P1;PMS_P2;Temp;Humidity;BMP_temperature;BMP_pressure;BME280_temperature;BME280_humidity;BME280_pressure;Samples;Min_cycle;Max_cycle;Signal;HPM_P1;HPM_P2
2021/04/11 00:00:41;;;;;;;6.03;3.90;;;12.80;37.20;;;;;;5020961;28;35805;-74
2021/04/11 00:03:11;;;;;;;5.53;3.80;;;12.70;37.20;;;;;;5019705;28;38503;-74
2021/04/11 00:05:41;;;;;;;5.97;3.80;;;12.70;37.30;;;;;;5042375;28;38786;-74
2021/04/11 00:08:10;;;;;;;5.33;3.80;;;12.60;37.30;;;;;;5048254;28;37830;-74
2021/04/11 00:10:39;;;;;;;4.40;3.90;;;12.60;37.90;;;;;;5049684;28;37071;-74
2021/04/11 00:13:13;;;;;;;5.47;2.90;;;12.50;37.80;;;;;;5049141;28;39473;-74
2021/04/11 00:15:40;;;;;;;4.40;3.57;;;12.50;38.00;;;;;;5046401;28;37928;-76
2021/04/11 00:18:08;;;;;;;6.30;3.77;;;12.40;37.90;;;;;;5055158;28;37382;-75
2021/04/11 00:20:35;;;;;;;5.87;3.63;;;12.30;38.40;;;;;;5050418;28;36890;-74
2021/04/11 00:23:03;;;;;;;4.73;3.80;;;12.20;38.70;;;;;;5039644;28;40793;-74
2021/04/11 00:25:33;;;;;;;4.53;3.47;;;12.10;39.20;;;;;;5032664;28;38838;-75
2021/04/11 00:28:04;;;;;;;5.33;3.43;;;12.00;39.60;;;;;;5021518;28;37598;-75
2021/04/11 00:30:31;;;;;;;9.30;4.23;;;11.90;39.70;;;;;;5046161;28;36834;-74
2021/04/11 00:33:00;;;;;;;5.37;4.87;;;11.80;39.70;;;;;;5050589;28;39325;-74
2021/04/11 00:35:28;;;;;;;4.00;3.60;;;11.70;40.60;;;;;;5056270;28;38173;-75
2021/04/11 00:37:56;;;;;;;5.00;3.73;;;11.60;41.40;;;;;;5066454;28;38847;-75
2021/04/11 00:40:27;;;;;;;5.17;4.37;;;11.50;40.90;;;;;;5040174;28;36925;-75
2021/04/11 00:42:58;;;;;;;5.10;4.47;;;11.40;41.00;;;;;;5015159;28;38561;-73
2021/04/11 00:45:48;;;;;;;5.90;3.70;;;11.30;41.40;;;;;;5055420;28;39038;-75
2021/04/11 00:48:36;;;;;;;4.27;3.87;;;11.20;41.50;;;;;;5043578;28;37286;-76
2021/04/11 00:51:12;;;;;;;4.20;3.80;;;11.10;41.50;;;;;;5021053;28;36049;-76
2021/04/11 00:53:40;;;;;;;5.00;3.90;;;11.00;42.00;;;;;;5055417;28;40923;-75
2021/04/11 00:56:09;;;;;;;4.73;3.40;;;11.00;42.30;;;;;;5040672;28;38012;-76
2021/04/11 00:58:38;;;;;;;4.83;4.30;;;10.90;42.40;;;;;;5065250;28;38480;-76
2021/04/11 01:01:06;;;;;;;5.40;4.40;;;10.90;42.60;;;;;;5065721;28;36953;-74
2021/04/11 01:03:37;;;;;;;5.43;3.90;;;10.80;42.90;;;;;;5040426;28;38259;-74
2021/04/11 01:06:06;;;;;;;4.80;3.57;;;10.80;43.00;;;;;;5037351;28;37802;-75
2021/04/11 01:08:35;;;;;;;4.27;3.40;;;10.70;43.10;;;;;;5050080;28;38478;-75
2021/04/11 01:11:07;;;;;;;5.73;3.83;;;10.70;43.50;;;;;;5044232;28;38368;-74
2021/04/11 01:13:40;;;;;;;4.13;3.67;;;10.70;43.70;;;;;;5040505;28;38832;-75
2021/04/11 01:16:09;;;;;;;5.63;3.60;;;10.60;43.70;;;;;;5052231;28;39699;-75
2021/04/11 01:18:38;;;;;;;4.50;4.10;;;10.60;43.90;;;;;;5042457;28;36397;-75
2021/04/11 01:21:11;;;;;;;4.43;3.90;;;10.50;43.90;;;;;;5062890;28;37186;-75
2021/04/11 01:23:48;;;;;;;4.40;3.80;;;10.50;44.00;;;;;;5041536;28;38240;-75
2021/04/11 01:26:19;;;;;;;4.43;3.57;;;10.50;44.10;;;;;;5024525;28;37680;-74
2021/04/11 01:28:47;;;;;;;4.70;3.30;;;10.50;44.40;;;;;;5054562;28;38065;-75
2021/04/11 01:31:16;;;;;;;5.03;3.70;;;10.40;44.20;;;;;;5065843;28;36976;-76
2021/04/11 01:33:49;;;;;;;6.10;3.67;;;10.50;44.50;;;;;;5035170;28;38780;-75
2021/04/11 01:36:24;;;;;;;4.97;3.27;;;10.50;44.50;;;;;;5069114;28;38715;-75
2021/04/11 01:38:53;;;;;;;4.70;3.60;;;10.50;44.10;;;;;;5031852;28;39257;-75
2021/04/11 01:41:28;;;;;;;5.60;3.57;;;10.50;44.00;;;;;;5030241;28;37067;-75
2021/04/11 01:43:56;;;;;;;3.97;3.20;;;10.60;43.90;;;;;;5037535;28;38290;-75
2021/04/11 01:46:26;;;;;;;4.10;3.53;;;10.70;43.80;;;;;;5054800;28;40016;-75
2021/04/11 01:48:54;;;;;;;4.97;4.07;;;10.70;43.60;;;;;;5072525;28;38322;-75
2021/04/11 01:51:26;;;;;;;3.17;2.87;;;10.80;43.50;;;;;;5029621;28;36093;-75
2021/04/11 01:53:54;;;;;;;5.47;3.30;;;10.80;43.20;;;;;;5061772;28;38395;-75
2021/04/11 01:56:22;;;;;;;4.67;3.23;;;10.90;42.80;;;;;;5036145;28;37933;-76
2021/04/11 01:58:57;;;;;;;4.67;3.50;;;10.90;43.10;;;;;;5046068;28;36729;-75
2021/04/11 02:01:32;;;;;;;4.47;3.77;;;10.90;43.10;;;;;;5031085;28;35876;-75
2021/04/11 02:04:05;;;;;;;3.93;3.20;;;11.00;42.70;;;;;;5021021;28;39300;-75
2021/04/11 02:06:40;;;;;;;7.20;3.60;;;11.10;42.20;;;;;;5067675;28;38746;-75
2021/04/11 02:09:19;;;;;;;3.30;2.80;;;11.10;41.70;;;;;;5037437;28;37045;-75
2021/04/11 02:12:10;;;;;;;3.50;2.30;;;11.30;41.10;;;;;;5037873;28;36572;-76
2021/04/11 02:14:41;;;;;;;7.70;2.57;;;11.30;40.80;;;;;;5030785;28;39966;-75
2021/04/11 02:17:12;;;;;;;2.90;2.60;;;11.30;40.90;;;;;;5051668;28;38871;-75
2021/04/11 02:19:40;;;;;;;2.87;2.20;;;11.20;41.10;;;;;;5003459;28;37630;-74
2021/04/11 02:22:17;;;;;;;4.33;2.40;;;11.20;41.30;;;;;;5027390;28;35951;-75
2021/04/11 02:24:46;;;;;;;4.83;2.67;;;11.20;41.30;;;;;;5049640;28;39598;-75
2021/04/11 02:27:17;;;;;;;3.00;2.30;;;11.30;41.20;;;;;;5045765;28;37789;-75
2021/04/11 02:29:46;;;;;;;4.37;2.40;;;11.20;41.30;;;;;;5027947;28;36642;-75
2021/04/11 02:32:16;;;;;;;4.73;2.70;;;11.20;41.30;;;;;;5063504;28;38431;-75
2021/04/11 02:34:45;;;;;;;5.43;2.23;;;11.30;41.40;;;;;;5037816;28;38796;-74
2021/04/11 02:37:21;;;;;;;3.63;2.93;;;11.30;41.10;;;;;;5036360;28;39130;-74
2021/04/11 02:39:49;;;;;;;4.43;2.63;;;11.30;41.30;;;;;;5036502;28;37153;-75
2021/04/11 02:42:21;;;;;;;3.63;2.23;;;11.40;41.30;;;;;;5037636;28;36839;-75
2021/04/11 02:44:51;;;;;;;7.60;2.70;;;11.40;40.90;;;;;;5052395;28;40231;-75
2021/04/11 02:47:24;;;;;;;4.13;2.63;;;11.40;40.80;;;;;;4990273;28;39588;-74
2021/04/11 02:49:55;;;;;;;4.57;3.27;;;11.40;40.40;;;;;;5068044;28;36862;-75
2021/04/11 02:52:30;;;;;;;6.30;3.10;;;11.50;40.10;;;;;;5057361;28;35968;-74
2021/04/11 02:54:59;;;;;;;5.00;4.03;;;11.50;40.40;;;;;;5042386;28;38282;-75
2021/04/11 02:57:28;;;;;;;4.07;3.37;;;11.60;40.10;;;;;;5040941;28;38724;-75
2021/04/11 02:59:59;;;;;;;8.17;3.63;;;11.60;40.00;;;;;;5051721;28;36595;-75
2021/04/11 03:02:31;;;;;;;4.60;3.87;;;11.60;40.20;;;;;;5081880;28;35860;-75
2021/04/11 03:05:07;;;;;;;5.23;3.57;;;11.60;39.90;;;;;;5049386;28;38746;-75
2021/04/11 03:07:41;;;;;;;3.43;2.80;;;11.70;40.00;;;;;;5064449;28;39080;-74
2021/04/11 03:10:15;;;;;;;4.17;2.70;;;11.70;40.00;;;;;;5054357;28;37741;-75
2021/04/11 03:12:45;;;;;;;4.23;2.97;;;11.70;40.10;;;;;;5070273;28;36489;-74
2021/04/11 03:15:15;;;;;;;3.67;3.00;;;11.60;40.80;;;;;;5033098;28;39335;-73
2021/04/11 03:17:44;;;;;;;4.17;2.70;;;11.60;40.30;;;;;;5049026;28;39136;-76
2021/04/11 03:20:18;;;;;;;3.17;2.50;;;11.50;40.50;;;;;;5033429;28;36586;-75
2021/04/11 03:22:53;;;;;;;3.30;2.53;;;11.60;40.80;;;;;;5040514;28;36725;-75
2021/04/11 03:25:21;;;;;;;2.00;1.87;;;11.50;40.60;;;;;;5068846;28;40707;-75
2021/04/11 03:27:55;;;;;;;3.13;2.23;;;11.50;40.70;;;;;;5068407;28;39935;-75
2021/04/11 03:30:27;;;;;;;2.80;2.23;;;11.50;40.90;;;;;;5046834;28;38056;-76
2021/04/11 03:32:59;;;;;;;4.10;2.60;;;11.50;40.80;;;;;;5056196;28;37010;-75
2021/04/11 03:35:31;;;;;;;6.77;2.53;;;11.50;41.00;;;;;;5082533;28;38262;-76
2021/04/11 03:38:03;;;;;;;3.30;2.50;;;11.50;41.40;;;;;;5033343;28;37703;-74
2021/04/11 03:40:36;;;;;;;3.80;2.30;;;11.50;41.60;;;;;;5049162;28;36754;-76
2021/04/11 03:43:12;;;;;;;3.60;2.40;;;11.50;41.60;;;;;;5033081;28;36116;-75
2021/04/11 03:45:42;;;;;;;3.00;2.30;;;11.50;41.80;;;;;;5026705;28;38532;-75
2021/04/11 03:48:17;;;;;;;5.13;2.50;;;11.40;42.00;;;;;;5036099;28;37849;-75
2021/04/11 03:50:49;;;;;;;2.90;2.70;;;11.40;42.10;;;;;;5036374;28;37544;-76
2021/04/11 03:53:21;;;;;;;3.30;2.43;;;11.40;42.20;;;;;;5039400;28;36087;-75
2021/04/11 03:56:00;;;;;;;3.43;2.40;;;11.50;42.30;;;;;;5020802;28;41399;-75
2021/04/11 03:58:33;;;;;;;2.53;2.23;;;11.50;42.30;;;;;;5021721;28;37686;-75
2021/04/11 04:01:13;;;;;;;5.67;2.30;;;11.40;42.40;;;;;;5018509;28;36721;-75
2021/04/11 04:03:44;;;;;;;3.30;2.20;;;11.40;42.30;;;;;;5040856;28;37750;-76
2021/04/11 04:06:18;;;;;;;2.50;2.30;;;11.40;42.40;;;;;;5041161;28;38305;-75
2021/04/11 04:08:46;;;;;;;4.10;2.53;;;11.40;42.40;;;;;;5036355;28;37781;-75
2021/04/11 04:11:22;;;;;;;4.70;2.67;;;11.50;43.00;;;;;;5041434;28;37553;-75
2021/04/11 04:14:14;;;;;;;4.63;2.60;;;11.50;42.30;;;;;;5050931;28;36810;-75
2021/04/11 04:16:58;;;;;;;2.57;2.20;;;11.50;42.30;;;;;;5035825;28;39245;-75
2021/04/11 04:19:35;;;;;;;3.03;2.10;;;11.40;42.30;;;;;;5035778;28;37716;-75
2021/04/11 04:22:11;;;;;;;2.30;1.70;;;11.40;42.30;;;;;;5035811;28;36931;-75
2021/04/11 04:25:20;;;;;;;2.90;2.13;;;11.40;42.20;;;;;;5035815;28;36009;-75
2021/04/11 04:28:15;;;;;;;2.67;2.47;;;11.40;42.40;;;;;;5047738;28;40465;-75
2021/04/11 04:30:54;;;;;;;2.53;2.33;;;11.30;42.40;;;;;;5028495;28;37660;-75
2021/04/11 04:33:30;;;;;;;2.57;2.17;;;11.30;42.50;;;;;;5071011;28;37571;-75
2021/04/11 04:36:14;;;;;;;2.70;2.37;;;11.20;42.70;;;;;;5033369;28;35994;-75
2021/04/11 04:38:55;;;;;;;5.23;3.00;;;11.30;42.80;;;;;;5020678;28;38389;-75
2021/04/11 04:41:35;;;;;;;3.27;2.30;;;11.30;42.90;;;;;;5048330;28;37655;-74
2021/04/11 04:44:18;;;;;;;3.43;2.20;;;11.20;43.10;;;;;;5032996;28;36639;-74
2021/04/11 04:47:01;;;;;;;3.67;2.40;;;11.20;43.10;;;;;;5027254;28;35900;-74
2021/04/11 04:49:42;;;;;;;2.70;2.50;;;11.10;43.20;;;;;;5029818;28;39127;-74
2021/04/11 04:52:14;;;;;;;3.90;2.07;;;11.20;43.40;;;;;;5029621;28;39416;-75
2021/04/11 04:54:45;;;;;;;3.90;2.40;;;11.20;43.40;;;;;;5031654;28;36603;-74
2021/04/11 04:57:17;;;;;;;3.47;2.13;;;11.20;43.40;;;;;;5020153;28;35885;-75
2021/04/11 04:59:54;;;;;;;3.77;3.00;;;11.20;43.50;;;;;;5031342;28;38386;-75
2021/04/11 05:02:34;;;;;;;4.07;2.60;;;11.20;43.90;;;;;;5049486;28;38391;-75
2021/04/11 05:05:11;;;;;;;3.77;2.40;;;11.20;44.00;;;;;;5053610;28;37596;-75
2021/04/11 05:07:56;;;;;;;2.93;2.67;;;11.30;44.30;;;;;;5035722;28;35981;-75
2021/04/11 05:10:27;;;;;;;3.30;2.53;;;11.30;44.00;;;;;;5037656;28;39225;-75
2021/04/11 05:13:05;;;;;;;4.83;3.33;;;11.40;44.00;;;;;;5071616;28;39758;-75
2021/04/11 05:15:39;;;;;;;4.43;3.30;;;11.40;44.20;;;;;;5070291;28;38664;-75
2021/04/11 05:18:17;;;;;;;5.90;3.20;;;11.40;44.50;;;;;;5054700;28;35938;-75
2021/04/11 05:20:58;;;;;;;5.03;3.00;;;11.40;44.50;;;;;;5054438;28;40932;-75
2021/04/11 05:23:35;;;;;;;9.17;3.83;;;11.50;44.70;;;;;;5045114;28;39510;-75
2021/04/11 05:26:11;;;;;;;7.20;3.70;;;11.50;44.70;;;;;;5034509;28;36966;-75
2021/04/11 05:28:47;;;;;;;3.90;2.90;;;11.50;44.70;;;;;;5034541;28;36633;-75
2021/04/11 05:31:21;;;;;;;6.17;2.63;;;11.50;43.20;;;;;;5034100;28;38520;-75
2021/04/11 05:33:50;;;;;;;3.50;3.20;;;11.50;43.00;;;;;;5049678;28;39266;-74
2021/04/11 05:36:34;;;;;;;6.23;3.90;;;11.50;43.80;;;;;;5034532;28;36761;-75
2021/04/11 05:39:11;;;;;;;4.60;2.97;;;11.60;43.90;;;;;;5051062;28;36971;-75
2021/04/11 05:41:48;;;;;;;4.00;3.40;;;11.60;43.90;;;;;;5048141;28;39159;-74
2021/04/11 05:44:20;;;;;;;4.37;2.90;;;11.80;44.20;;;;;;5070798;28;39802;-75
2021/04/11 05:46:56;;;;;;;3.97;2.87;;;11.90;44.10;;;;;;5057899;28;36756;-74
2021/04/11 05:49:32;;;;;;;3.97;3.00;;;11.90;44.00;;;;;;5073046;28;38013;-74
2021/04/11 05:52:03;;;;;;;4.90;3.70;;;11.90;44.10;;;;;;5058232;28;38241;-74
2021/04/11 05:54:37;;;;;;;5.20;4.70;;;12.00;44.00;;;;;;5073222;28;39702;-74
2021/04/11 05:57:07;;;;;;;5.57;5.00;;;12.00;43.90;;;;;;5076025;28;37861;-74
2021/04/11 05:59:42;;;;;;;6.30;4.77;;;12.00;44.00;;;;;;5073889;28;37346;-75
2021/04/11 06:02:17;;;;;;;4.60;3.73;;;12.10;44.00;;;;;;5061577;28;39614;-74
2021/04/11 06:04:49;;;;;;;6.40;4.13;;;12.10;43.90;;;;;;5037650;28;38043;-74
2021/04/11 06:07:26;;;;;;;5.30;3.80;;;12.20;43.60;;;;;;5050157;28;37832;-74
2021/04/11 06:10:00;;;;;;;4.80;4.30;;;12.30;43.60;;;;;;5055292;28;37340;-75
2021/04/11 06:12:33;;;;;;;6.83;4.50;;;12.50;43.40;;;;;;5059287;28;40436;-75
2021/04/11 06:15:08;;;;;;;6.00;3.90;;;12.50;43.00;;;;;;5053533;28;39742;-75
2021/04/11 06:17:36;;;;;;;5.00;4.17;;;12.60;42.60;;;;;;5056564;28;39227;-74
2021/04/11 06:20:10;;;;;;;8.47;4.00;;;12.80;42.80;;;;;;5059140;28;37160;-76
2021/04/11 06:22:42;;;;;;;6.03;4.33;;;13.00;42.60;;;;;;5056849;28;40241;-74
2021/04/11 06:25:18;;;;;;;5.13;4.23;;;13.10;42.70;;;;;;5059845;28;38996;-75
2021/04/11 06:28:09;;;;;;;5.13;4.73;;;13.40;42.80;;;;;;5058361;28;38136;-75
2021/04/11 06:30:42;;;;;;;5.70;5.03;;;13.70;42.40;;;;;;5067924;28;37616;-75
2021/04/11 06:33:15;;;;;;;4.93;3.97;;;14.20;41.50;;;;;;5033324;28;39547;-76
2021/04/11 06:35:48;;;;;;;6.90;4.50;;;14.80;40.80;;;;;;5040387;28;39152;-74
2021/04/11 06:38:20;;;;;;;5.77;5.27;;;15.30;39.70;;;;;;5069464;28;36815;-73
2021/04/11 06:41:10;;;;;;;5.83;4.20;;;15.90;39.00;;;;;;5063910;28;38075;-73
2021/04/11 06:44:11;;;;;;;5.10;4.13;;;17.90;37.10;;;;;;5066859;28;37969;-73
2021/04/11 06:46:49;;;;;;;5.20;4.00;;;19.60;32.30;;;;;;5048825;28;38966;-73
2021/04/11 06:49:35;;;;;;;7.00;4.10;;;20.60;31.00;;;;;;5040639;28;38909;-74
2021/04/11 06:52:23;;;;;;;5.17;4.67;;;20.70;29.80;;;;;;5036102;28;38208;-73
2021/04/11 06:55:19;;;;;;;4.37;3.83;;;20.70;30.00;;;;;;5037302;28;39650;-73
2021/04/11 06:57:55;;;;;;;6.20;4.00;;;20.60;30.00;;;;;;5043928;28;39595;-74
2021/04/11 07:00:43;;;;;;;4.80;4.10;;;20.40;30.00;;;;;;5043025;28;38966;-74
2021/04/11 07:03:58;;;;;;;4.10;3.70;;;20.10;30.00;;;;;;5063815;28;35529;-73
2021/04/11 07:06:53;;;;;;;5.07;4.67;;;20.10;30.00;;;;;;5059360;28;40360;-75
2021/04/11 07:09:55;;;;;;;6.17;4.40;;;19.80;30.40;;;;;;5025306;28;37854;-75
2021/04/11 07:13:16;;;;;;;5.17;4.67;;;19.50;30.80;;;;;;5063672;28;37432;-76
2021/04/11 07:16:25;;;;;;;5.10;4.53;;;19.40;31.50;;;;;;5049660;28;37389;-75
2021/04/11 07:19:19;;;;;;;11.10;4.80;;;19.10;31.80;;;;;;5033489;28;40526;-76
2021/04/11 07:22:26;;;;;;;4.83;4.30;;;18.80;31.90;;;;;;5040143;28;37945;-75
2021/04/11 07:25:19;;;;;;;5.73;4.70;;;18.70;32.40;;;;;;5057387;28;38518;-75
2021/04/11 07:28:02;;;;;;;5.70;4.57;;;18.40;32.80;;;;;;5040985;28;37313;-75
2021/04/11 07:30:41;;;;;;;5.30;4.70;;;18.40;32.60;;;;;;5052127;28;41130;-76
2021/04/11 07:33:39;;;;;;;4.80;4.37;;;18.60;32.80;;;;;;5055201;28;40411;-76
2021/04/11 07:36:28;;;;;;;4.80;4.37;;;19.40;31.80;;;;;;5040574;28;38902;-76
2021/04/11 07:39:06;;;;;;;5.70;4.67;;;20.30;30.70;;;;;;5032757;28;37160;-77
2021/04/11 07:41:53;;;;;;;4.73;4.33;;;20.80;29.70;;;;;;5032355;28;39861;-75
2021/04/11 07:44:38;;;;;;;7.40;4.27;;;21.20;29.50;;;;;;5029801;28;39105;-75
2021/04/11 07:47:43;;;;;;;4.40;4.00;;;21.40;29.20;;;;;;5049509;28;36828;-76
2021/04/11 07:50:26;;;;;;;4.30;3.90;;;21.20;29.00;;;;;;5013091;28;36723;-75
2021/04/11 07:53:26;;;;;;;4.67;3.80;;;20.90;29.60;;;;;;5013454;28;38192;-76
2021/04/11 07:56:06;;;;;;;4.37;3.23;;;20.80;29.30;;;;;;5015653;28;37621;-76
2021/04/11 07:59:02;;;;;;;4.70;3.10;;;20.90;29.00;;;;;;5031688;28;38066;-76
2021/04/11 08:02:01;;;;;;;3.70;2.70;;;21.10;28.40;;;;;;5031228;28;37913;-76
2021/04/11 08:04:51;;;;;;;3.53;3.23;;;21.30;28.40;;;;;;5028967;28;39512;-75
2021/04/11 08:07:49;;;;;;;6.70;3.23;;;21.50;28.50;;;;;;5031232;28;39488;-76
2021/04/11 08:10:41;;;;;;;5.10;3.57;;;21.90;28.50;;;;;;5033686;28;39053;-75
2021/04/11 08:13:49;;;;;;;4.23;3.70;;;22.10;28.50;;;;;;5032382;28;37435;-76
2021/04/11 08:16:57;;;;;;;5.57;5.07;;;22.30;28.50;;;;;;4969116;28;40598;-76
2021/04/11 08:19:56;;;;;;;4.90;4.33;;;22.60;28.30;;;;;;5030847;28;39944;-76
2021/04/11 08:23:14;;;;;;;5.13;4.20;;;22.90;27.80;;;;;;5016579;28;37950;-76
2021/04/11 08:25:51;;;;;;;6.27;3.40;;;23.20;28.00;;;;;;5028614;28;37087;-75
2021/04/11 08:28:41;;;;;;;3.70;3.40;;;23.40;27.70;;;;;;5029715;28;39939;-76
2021/04/11 08:31:45;;;;;;;7.23;3.60;;;23.30;27.20;;;;;;5032495;28;39758;-76
2021/04/11 08:35:01;;;;;;;3.47;3.17;;;23.10;27.10;;;;;;5036154;28;38251;-76
2021/04/11 08:37:48;;;;;;;5.37;3.30;;;23.00;27.20;;;;;;5024131;28;37093;-78
2021/04/11 08:40:33;;;;;;;5.70;2.83;;;23.10;26.50;;;;;;5057923;28;40377;-76
2021/04/11 08:43:21;;;;;;;4.63;3.57;;;22.90;27.10;;;;;;5051888;28;38996;-76
2021/04/11 08:45:55;;;;;;;4.50;3.10;;;22.40;27.30;;;;;;5034848;28;37534;-76
2021/04/11 08:48:44;;;;;;;3.33;2.90;;;22.30;28.30;;;;;;5050180;28;37147;-75
2021/04/11 08:51:20;;;;;;;3.07;2.77;;;22.00;27.90;;;;;;5069654;28;38417;-76
2021/04/11 08:53:59;;;;;;;3.00;2.70;;;21.90;28.00;;;;;;5056667;28;39165;-76
2021/04/11 08:56:38;;;;;;;4.43;2.30;;;22.00;27.80;;;;;;5046866;28;36558;-76
2021/04/11 08:59:13;;;;;;;2.80;2.10;;;22.00;27.50;;;;;;5071223;28;37831;-76
2021/04/11 09:02:01;;;;;;;4.60;2.70;;;21.90;27.60;;;;;;5039850;28;37819;-76
2021/04/11 09:04:37;;;;;;;3.90;2.00;;;21.50;27.40;;;;;;5058336;28;39962;-77
2021/04/11 09:07:33;;;;;;;3.40;2.40;;;21.60;28.60;;;;;;5038729;28;39322;-75
2021/04/11 09:10:13;;;;;;;2.80;1.97;;;21.60;27.90;;;;;;5061657;28;37977;-76
2021/04/11 09:12:52;;;;;;;1.97;1.77;;;21.50;28.10;;;;;;5048019;28;39173;-75
2021/04/11 09:15:28;;;;;;;2.30;1.47;;;21.40;27.60;;;;;;5051316;28;38108;-76
2021/04/11 09:18:19;;;;;;;2.90;1.50;;;21.30;26.90;;;;;;5051811;28;37190;-75
2021/04/11 09:21:04;;;;;;;1.77;1.20;;;21.40;27.10;;;;;;5076057;28;36231;-76
2021/04/11 09:23:44;;;;;;;2.80;1.40;;;21.30;26.20;;;;;;5055492;28;39600;-76
2021/04/11 09:26:46;;;;;;;7.10;1.50;;;21.20;26.10;;;;;;5062806;28;38508;-76
2021/04/11 09:29:30;;;;;;;3.40;1.43;;;21.00;26.80;;;;;;5054301;28;38807;-75
2021/04/11 09:32:15;;;;;;;2.87;1.20;;;21.00;26.40;;;;;;5051214;28;37666;-75
2021/04/11 09:34:57;;;;;;;3.30;1.40;;;20.90;26.50;;;;;;5052188;28;39776;-76
2021/04/11 09:38:01;;;;;;;1.80;1.40;;;20.90;26.40;;;;;;5067097;28;21257;-76
2021/04/11 09:40:41;;;;;;;1.97;1.13;;;21.10;26.20;;;;;;5033092;28;38224;-76
2021/04/11 09:43:31;;;;;;;2.00;1.43;;;21.30;26.00;;;;;;5049953;28;37690;-74
2021/04/11 09:46:23;;;;;;;4.03;1.80;;;21.40;26.00;;;;;;5051579;28;39560;-76
2021/04/11 09:49:26;;;;;;;1.90;1.50;;;21.50;26.20;;;;;;5031871;28;37671;-75
2021/04/11 09:52:08;;;;;;;3.20;1.40;;;21.60;25.60;;;;;;5035782;28;38865;-75
2021/04/11 09:54:44;;;;;;;1.77;1.13;;;21.80;26.20;;;;;;5059682;28;37836;-76
2021/04/11 09:57:39;;;;;;;2.17;1.43;;;22.20;25.60;;;;;;5060177;28;40640;-75
2021/04/11 10:00:16;;;;;;;2.97;1.53;;;22.40;25.20;;;;;;5048166;28;38976;-75
2021/04/11 10:03:02;;;;;;;4.10;1.60;;;22.70;25.20;;;;;;5054227;28;38391;-76
2021/04/11 10:05:34;;;;;;;3.23;1.50;;;22.90;24.70;;;;;;5033317;28;35702;-74
2021/04/11 10:08:28;;;;;;;2.13;1.33;;;23.70;24.20;;;;;;5051466;28;39705;-75
2021/04/11 10:11:14;;;;;;;1.50;1.23;;;24.60;23.30;;;;;;5017432;28;38508;-75
2021/04/11 10:14:07;;;;;;;5.53;1.47;;;25.70;22.00;;;;;;5037604;28;36530;-75
2021/04/11 10:16:45;;;;;;;2.07;1.20;;;26.60;21.70;;;;;;5035541;28;36428;-76
2021/04/11 10:19:42;;;;;;;2.50;1.20;;;27.90;20.00;;;;;;5054994;28;40480;-77
2021/04/11 10:22:27;;;;;;;2.43;1.27;;;29.30;19.00;;;;;;5050816;28;39161;-73
2021/04/11 10:25:05;;;;;;;3.00;1.60;;;30.40;18.40;;;;;;5035301;28;38225;-74
2021/04/11 10:27:37;;;;;;;2.37;1.23;;;30.90;18.20;;;;;;5049753;28;36839;-76
2021/04/11 10:30:09;;;;;;;4.03;1.40;;;32.50;17.30;;;;;;5040482;28;38391;-76
2021/04/11 10:32:43;;;;;;;3.93;1.70;;;34.20;16.00;;;;;;5051676;28;39105;-72
2021/04/11 10:35:14;;;;;;;2.10;1.47;;;35.70;15.10;;;;;;5063734;28;38594;-72
2021/04/11 10:37:48;;;;;;;2.63;1.47;;;36.40;14.10;;;;;;5043181;28;35937;-72
2021/04/11 10:40:41;;;;;;;4.30;1.40;;;36.80;14.00;;;;;;5055197;28;39568;-73
2021/04/11 10:43:35;;;;;;;2.23;1.43;;;36.90;13.40;;;;;;5046076;28;37961;-72
2021/04/11 10:46:09;;;;;;;1.83;1.30;;;37.20;13.50;;;;;;5037568;28;37849;-72
2021/04/11 10:49:11;;;;;;;2.07;1.40;;;37.80;13.80;;;;;;5053540;28;37406;-72
2021/04/11 10:52:17;;;;;;;2.23;1.33;;;37.80;13.10;;;;;;5039951;28;38385;-72
2021/04/11 10:55:23;;;;;;;4.17;1.60;;;37.60;12.80;;;;;;5068450;28;39648;-73
2021/04/11 10:58:23;;;;;;;2.10;1.30;;;36.80;12.70;;;;;;5059539;28;38285;-72
2021/04/11 11:01:02;;;;;;;1.73;1.40;;;35.80;12.80;;;;;;5063198;28;38036;-74
2021/04/11 11:03:53;;;;;;;3.23;1.50;;;33.90;13.20;;;;;;5054274;28;39562;-72
2021/04/11 11:06:58;;;;;;;3.37;1.43;;;32.60;14.70;;;;;;5053066;28;38570;-72
2021/04/11 11:09:29;;;;;;;3.83;1.60;;;31.10;15.50;;;;;;5039228;28;37866;-72
2021/04/11 11:12:20;;;;;;;5.60;1.40;;;29.90;16.60;;;;;;5032838;28;36315;-73
2021/04/11 11:15:19;;;;;;;1.93;1.20;;;28.60;17.00;;;;;;5046499;28;40552;-72
2021/04/11 11:18:23;;;;;;;3.13;1.70;;;27.80;17.40;;;;;;5046979;28;39964;-76
2021/04/11 11:21:07;;;;;;;4.33;1.47;;;27.50;18.20;;;;;;4990593;28;38159;-73
2021/04/11 11:23:57;;;;;;;4.20;1.47;;;27.30;18.50;;;;;;5056865;28;36995;-73
2021/04/11 11:26:43;;;;;;;2.90;1.50;;;27.40;18.60;;;;;;5035047;28;39565;-72
2021/04/11 11:29:33;;;;;;;3.63;1.70;;;27.70;19.20;;;;;;5052626;28;38975;-73
2021/04/11 11:32:06;;;;;;;2.23;1.37;;;27.90;18.70;;;;;;5055614;28;38864;-75
2021/04/11 11:34:46;;;;;;;2.70;1.50;;;27.30;17.50;;;;;;5054257;28;38111;-76
2021/04/11 11:37:40;;;;;;;1.70;1.30;;;27.00;18.70;;;;;;5065848;28;40634;-75
2021/04/11 11:40:16;;;;;;;2.23;1.30;;;26.30;18.60;;;;;;5049547;28;36643;-74
2021/04/11 11:43:00;;;;;;;2.50;1.90;;;25.80;19.50;;;;;;5049144;28;38831;-75
2021/04/11 11:45:34;;;;;;;2.50;1.33;;;25.40;20.00;;;;;;5042844;28;35732;-75
2021/04/11 11:48:25;;;;;;;1.70;1.30;;;25.20;20.70;;;;;;5065996;28;41693;-74
2021/04/11 11:51:00;;;;;;;3.00;1.77;;;24.90;20.60;;;;;;5064422;28;41741;-75
2021/04/11 11:53:34;;;;;;;2.63;1.57;;;24.80;20.70;;;;;;5067710;28;38124;-73
2021/04/11 11:56:30;;;;;;;4.30;1.47;;;24.60;21.10;;;;;;5051236;28;37448;-76
2021/04/11 11:59:03;;;;;;;2.30;1.30;;;24.50;20.40;;;;;;4991879;28;38101;-73
2021/04/11 12:01:43;;;;;;;1.97;1.77;;;24.40;20.60;;;;;;5051902;28;39469;-74
2021/04/11 12:04:46;;;;;;;2.50;1.80;;;24.10;21.20;;;;;;5013172;28;37794;-73
2021/04/11 12:07:23;;;;;;;1.80;1.33;;;23.90;21.70;;;;;;5040009;28;36085;-74
2021/04/11 12:10:09;;;;;;;2.87;1.40;;;23.70;21.30;;;;;;5046244;28;38183;-72
2021/04/11 12:12:50;;;;;;;1.53;1.43;;;23.50;21.40;;;;;;5059871;28;38770;-72
2021/04/11 12:15:25;;;;;;;2.23;1.70;;;23.50;22.10;;;;;;5083758;28;36884;-74
2021/04/11 12:17:59;;;;;;;22.73;8.03;;;23.60;21.70;;;;;;5066323;28;37476;-74
2021/04/11 12:20:32;;;;;;;2.10;1.53;;;23.80;22.10;;;;;;5049331;28;40309;-77
2021/04/11 12:23:04;;;;;;;2.37;1.47;;;24.10;21.70;;;;;;5069862;28;38794;-77
2021/04/11 12:25:34;;;;;;;2.03;1.30;;;24.40;21.10;;;;;;5062203;28;38492;-78
2021/04/11 12:28:12;;;;;;;2.07;1.37;;;24.60;21.60;;;;;;5053720;28;36537;-77
2021/04/11 12:30:42;;;;;;;3.63;1.83;;;24.60;21.20;;;;;;5063103;28;39714;-76
2021/04/11 12:33:26;;;;;;;2.10;1.30;;;24.30;20.90;;;;;;5069184;28;39881;-77
2021/04/11 12:36:04;;;;;;;3.23;1.13;;;24.00;21.00;;;;;;5038722;28;37947;-78
2021/04/11 12:38:41;;;;;;;9.20;1.77;;;23.70;21.00;;;;;;5056113;28;37458;-78
2021/04/11 12:41:18;;;;;;;3.33;1.67;;;23.50;21.90;;;;;;5056853;28;40631;-77
2021/04/11 12:43:53;;;;;;;1.90;1.10;;;23.40;22.70;;;;;;5065678;28;39273;-78
2021/04/11 12:46:28;;;;;;;3.93;1.83;;;23.30;21.60;;;;;;5051424;28;37992;-77
2021/04/11 12:49:03;;;;;;;7.20;2.17;;;23.20;22.10;;;;;;5057155;28;37373;-76
2021/04/11 12:51:36;;;;;;;3.50;1.00;;;23.20;22.00;;;;;;5055588;28;38594;-76
2021/04/11 12:54:09;;;;;;;0.80;0.70;;;23.00;20.60;;;;;;5066995;28;39282;-77
2021/04/11 12:56:42;;;;;;;1.10;0.90;;;22.50;21.20;;;;;;5035908;28;36561;-77
2021/04/11 12:59:17;;;;;;;3.40;1.10;;;22.50;21.20;;;;;;5052380;28;38323;-77
2021/04/11 13:01:47;;;;;;;1.30;0.93;;;22.60;21.30;;;;;;5068927;28;38300;-77
2021/04/11 13:04:22;;;;;;;2.53;1.20;;;22.90;21.50;;;;;;5053876;28;40457;-77
2021/04/11 13:06:55;;;;;;;1.43;0.80;;;23.10;21.60;;;;;;5051311;28;38597;-77
2021/04/11 13:09:35;;;;;;;3.60;1.13;;;23.40;21.00;;;;;;5035685;28;36275;-77
2021/04/11 13:12:15;;;;;;;1.53;0.83;;;23.60;20.60;;;;;;5023263;28;39313;-77
2021/04/11 13:14:53;;;;;;;1.43;0.90;;;23.80;21.20;;;;;;5039736;28;38025;-76
2021/04/11 13:17:26;;;;;;;2.60;1.20;;;23.80;20.90;;;;;;5052818;28;38513;-77
2021/04/11 13:19:58;;;;;;;2.03;1.00;;;23.90;20.80;;;;;;5038273;28;36612;-77
2021/04/11 13:22:30;;;;;;;1.20;0.80;;;24.00;21.10;;;;;;5047044;28;39405;-77
2021/04/11 13:25:06;;;;;;;1.60;1.00;;;23.90;20.70;;;;;;5033897;28;38965;-77
2021/04/11 13:27:39;;;;;;;3.23;1.10;;;23.70;20.80;;;;;;5043342;28;38234;-77
2021/04/11 13:30:12;;;;;;;2.90;1.77;;;23.70;20.80;;;;;;5035859;28;38057;-76
2021/04/11 13:32:45;;;;;;;1.50;1.00;;;23.50;21.30;;;;;;5038614;28;40860;-77
2021/04/11 13:35:25;;;;;;;2.93;1.23;;;23.40;21.40;;;;;;5041761;28;38915;-77
2021/04/11 13:37:56;;;;;;;1.20;0.90;;;23.40;21.30;;;;;;5045999;28;39114;-77
2021/04/11 13:40:26;;;;;;;1.83;1.07;;;23.30;21.30;;;;;;5047525;28;37106;-76
2021/04/11 13:43:06;;;;;;;1.23;0.70;;;23.30;21.40;;;;;;5035148;28;38380;-77
2021/04/11 13:45:47;;;;;;;1.63;0.83;;;23.00;21.40;;;;;;5056612;28;39811;-76
2021/04/11 13:48:26;;;;;;;2.40;0.90;;;23.00;21.20;;;;;;5053969;28;37949;-76
2021/04/11 13:51:20;;;;;;;1.93;0.70;;;23.30;21.80;;;;;;5057575;28;37983;-77